sensor_id;sensor_type;location;lat;lon;timestamp;temperature;humidity
37658;DHT22;23500;53.268;8.308;2023-05-07T00:01:06;17.10;66.80
37658;DHT22;23500;53.268;8.308;2023-05-07T00:03:32;17.10;67.10
37658;DHT22;23500;53.268;8.308;2023-05-07T00:05:58;17.10;67.10
37658;DHT22;23500;53.268;8.308;2023-05-07T00:08:24;17.10;67.20
37658;DHT22;23500;53.268;8.308;2023-05-07T00:10:50;17.10;67.20
37658;DHT22;23500;53.268;8.308;2023-05-07T00:13:15;17.10;67.10
37658;DHT22;23500;53.268;8.308;2023-05-07T00:15:41;17.10;67.10
37658;DHT22;23500;53.268;8.308;2023-05-07T00:18:06;17.10;67.10
37658;DHT22;23500;53.268;8.308;2023-05-07T00:20:32;17.10;67.10
37658;DHT22;23500;53.268;8.308;2023-05-07T00:22:58;17.00;67.20
37658;DHT22;23500;53.268;8.308;2023-05-07T00:25:23;17.00;67.10
37658;DHT22;23500;53.268;8.308;2023-05-07T00:27:49;17.00;67.00
37658;DHT22;23500;53.268;8.308;2023-05-07T00:30:15;17.00;67.10
37658;DHT22;23500;53.268;8.308;2023-05-07T00:32:40;17.00;66.90
37658;DHT22;23500;53.268;8.308;2023-05-07T00:35:07;17.00;67.00
37658;DHT22;23500;53.268;8.308;2023-05-07T00:37:32;17.00;67.00
37658;DHT22;23500;53.268;8.308;2023-05-07T00:39:58;17.00;67.00
37658;DHT22;23500;53.268;8.308;2023-05-07T00:42:24;17.00;67.00
37658;DHT22;23500;53.268;8.308;2023-05-07T00:44:50;17.00;66.80
37658;DHT22;23500;53.268;8.308;2023-05-07T00:47:16;17.00;66.80
37658;DHT22;23500;53.268;8.308;2023-05-07T00:49:43;17.00;66.90
37658;DHT22;23500;53.268;8.308;2023-05-07T00:52:14;16.90;66.90
37658;DHT22;23500;53.268;8.308;2023-05-07T00:54:41;16.90;67.20
37658;DHT22;23500;53.268;8.308;2023-05-07T00:57:09;16.90;67.20
37658;DHT22;23500;53.268;8.308;2023-05-07T00:59:35;16.90;67.00
37658;DHT22;23500;53.268;8.308;2023-05-07T01:02:01;16.90;67.30
37658;DHT22;23500;53.268;8.308;2023-05-07T01:04:27;16.90;67.10
37658;DHT22;23500;53.268;8.308;2023-05-07T01:06:54;16.90;67.20
37658;DHT22;23500;53.268;8.308;2023-05-07T01:09:22;16.90;67.20
37658;DHT22;23500;53.268;8.308;2023-05-07T01:11:49;16.90;67.10
37658;DHT22;23500;53.268;8.308;2023-05-07T01:14:16;16.90;67.10
37658;DHT22;23500;53.268;8.308;2023-05-07T01:16:42;16.90;67.20
37658;DHT22;23500;53.268;8.308;2023-05-07T01:19:08;16.90;67.20
37658;DHT22;23500;53.268;8.308;2023-05-07T01:21:37;16.90;67.20
37658;DHT22;23500;53.268;8.308;2023-05-07T01:24:04;16.90;67.30
37658;DHT22;23500;53.268;8.308;2023-05-07T01:26:30;16.90;67.20
37658;DHT22;23500;53.268;8.308;2023-05-07T01:28:56;16.90;67.20
37658;DHT22;23500;53.268;8.308;2023-05-07T01:31:23;16.90;67.20
37658;DHT22;23500;53.268;8.308;2023-05-07T01:33:50;16.90;67.00
37658;DHT22;23500;53.268;8.308;2023-05-07T01:36:17;16.90;67.10
37658;DHT22;23500;53.268;8.308;2023-05-07T01:38:44;16.90;67.00
37658;DHT22;23500;53.268;8.308;2023-05-07T01:41:12;16.90;67.30
37658;DHT22;23500;53.268;8.308;2023-05-07T01:43:40;16.90;67.30
37658;DHT22;23500;53.268;8.308;2023-05-07T01:46:07;16.90;67.20
37658;DHT22;23500;53.268;8.308;2023-05-07T01:48:34;16.90;67.20
37658;DHT22;23500;53.268;8.308;2023-05-07T01:51:01;16.90;67.10
37658;DHT22;23500;53.268;8.308;2023-05-07T01:53:27;16.90;67.10
37658;DHT22;23500;53.268;8.308;2023-05-07T01:55:53;16.90;67.40
37658;DHT22;23500;53.268;8.308;2023-05-07T01:58:19;16.90;67.30
37658;DHT22;23500;53.268;8.308;2023-05-07T02:00:45;16.90;67.40
37658;DHT22;23500;53.268;8.308;2023-05-07T02:03:11;16.90;67.00
37658;DHT22;23500;53.268;8.308;2023-05-07T02:05:36;16.90;67.30
37658;DHT22;23500;53.268;8.308;2023-05-07T02:08:02;16.90;67.40
37658;DHT22;23500;53.268;8.308;2023-05-07T02:10:27;16.90;67.30
37658;DHT22;23500;53.268;8.308;2023-05-07T02:12:53;16.90;67.50
37658;DHT22;23500;53.268;8.308;2023-05-07T02:15:19;16.90;67.50
37658;DHT22;23500;53.268;8.308;2023-05-07T02:18:04;16.90;67.20
37658;DHT22;23500;53.268;8.308;2023-05-07T02:20:31;16.90;67.40
37658;DHT22;23500;53.268;8.308;2023-05-07T02:22:57;16.90;67.40
37658;DHT22;23500;53.268;8.308;2023-05-07T02:25:22;16.90;67.30
37658;DHT22;23500;53.268;8.308;2023-05-07T02:27:48;16.80;67.20
37658;DHT22;23500;53.268;8.308;2023-05-07T02:30:14;16.90;67.30
37658;DHT22;23500;53.268;8.308;2023-05-07T02:32:40;16.80;67.30
37658;DHT22;23500;53.268;8.308;2023-05-07T02:35:06;16.80;67.20
37658;DHT22;23500;53.268;8.308;2023-05-07T02:37:31;16.80;67.20
37658;DHT22;23500;53.268;8.308;2023-05-07T02:39:57;16.80;67.20
37658;DHT22;23500;53.268;8.308;2023-05-07T02:42:23;16.80;67.30
37658;DHT22;23500;53.268;8.308;2023-05-07T02:44:48;16.80;67.20
37658;DHT22;23500;53.268;8.308;2023-05-07T02:47:15;16.80;67.20
37658;DHT22;23500;53.268;8.308;2023-05-07T02:49:41;16.80;67.50
37658;DHT22;23500;53.268;8.308;2023-05-07T02:52:07;16.80;67.00
37658;DHT22;23500;53.268;8.308;2023-05-07T02:54:32;16.80;67.10
37658;DHT22;23500;53.268;8.308;2023-05-07T02:56:58;16.80;67.10
37658;DHT22;23500;53.268;8.308;2023-05-07T02:59:24;16.80;66.80
37658;DHT22;23500;53.268;8.308;2023-05-07T03:01:51;16.70;67.20
37658;DHT22;23500;53.268;8.308;2023-05-07T03:04:17;16.70;67.10
37658;DHT22;23500;53.268;8.308;2023-05-07T03:06:43;16.70;67.20
37658;DHT22;23500;53.268;8.308;2023-05-07T03:09:08;16.70;67.20
37658;DHT22;23500;53.268;8.308;2023-05-07T03:11:34;16.70;67.10
37658;DHT22;23500;53.268;8.308;2023-05-07T03:14:01;16.70;67.30
37658;DHT22;23500;53.268;8.308;2023-05-07T03:16:27;16.70;67.30
37658;DHT22;23500;53.268;8.308;2023-05-07T03:18:52;16.70;67.10
37658;DHT22;23500;53.268;8.308;2023-05-07T03:21:18;16.70;66.90
37658;DHT22;23500;53.268;8.308;2023-05-07T03:23:44;16.70;66.90
37658;DHT22;23500;53.268;8.308;2023-05-07T03:26:10;16.70;67.30
37658;DHT22;23500;53.268;8.308;2023-05-07T03:28:36;16.70;67.30
37658;DHT22;23500;53.268;8.308;2023-05-07T03:31:02;16.70;67.30
37658;DHT22;23500;53.268;8.308;2023-05-07T03:33:28;16.70;67.30
37658;DHT22;23500;53.268;8.308;2023-05-07T03:35:53;16.70;67.30
37658;DHT22;23500;53.268;8.308;2023-05-07T03:38:19;16.70;67.30
37658;DHT22;23500;53.268;8.308;2023-05-07T03:40:45;16.70;67.10
37658;DHT22;23500;53.268;8.308;2023-05-07T03:43:10;16.70;68.10
37658;DHT22;23500;53.268;8.308;2023-05-07T03:45:36;16.70;67.10
37658;DHT22;23500;53.268;8.308;2023-05-07T03:48:02;16.60;66.90
37658;DHT22;23500;53.268;8.308;2023-05-07T03:50:27;16.60;66.90
37658;DHT22;23500;53.268;8.308;2023-05-07T03:52:53;16.60;67.10
37658;DHT22;23500;53.268;8.308;2023-05-07T03:55:19;16.60;67.00
37658;DHT22;23500;53.268;8.308;2023-05-07T03:57:44;16.60;67.20
37658;DHT22;23500;53.268;8.308;2023-05-07T04:00:11;16.60;67.60
37658;DHT22;23500;53.268;8.308;2023-05-07T04:02:37;16.60;67.20
37658;DHT22;23500;53.268;8.308;2023-05-07T04:05:03;16.60;67.30
37658;DHT22;23500;53.268;8.308;2023-05-07T04:07:28;16.60;67.40
37658;DHT22;23500;53.268;8.308;2023-05-07T04:09:54;16.60;67.30
37658;DHT22;23500;53.268;8.308;2023-05-07T04:12:19;16.60;67.00
37658;DHT22;23500;53.268;8.308;2023-05-07T04:14:45;16.60;67.40
37658;DHT22;23500;53.268;8.308;2023-05-07T04:17:11;16.60;67.30
37658;DHT22;23500;53.268;8.308;2023-05-07T04:19:36;16.60;67.50
37658;DHT22;23500;53.268;8.308;2023-05-07T04:22:02;16.60;67.30
37658;DHT22;23500;53.268;8.308;2023-05-07T04:24:31;16.60;67.40
37658;DHT22;23500;53.268;8.308;2023-05-07T04:26:58;16.60;67.10
37658;DHT22;23500;53.268;8.308;2023-05-07T04:29:24;16.60;67.20
37658;DHT22;23500;53.268;8.308;2023-05-07T04:31:49;16.60;67.20
37658;DHT22;23500;53.268;8.308;2023-05-07T04:34:15;16.60;67.10
37658;DHT22;23500;53.268;8.308;2023-05-07T04:36:41;16.60;67.30
37658;DHT22;23500;53.268;8.308;2023-05-07T04:39:07;16.60;67.10
37658;DHT22;23500;53.268;8.308;2023-05-07T04:41:35;16.50;67.30
37658;DHT22;23500;53.268;8.308;2023-05-07T04:44:01;16.60;67.30
37658;DHT22;23500;53.268;8.308;2023-05-07T04:46:30;16.60;67.00
37658;DHT22;23500;53.268;8.308;2023-05-07T04:48:55;16.60;67.50
37658;DHT22;23500;53.268;8.308;2023-05-07T04:51:21;16.60;67.30
37658;DHT22;23500;53.268;8.308;2023-05-07T04:53:48;16.60;67.40
37658;DHT22;23500;53.268;8.308;2023-05-07T04:56:13;16.60;67.80
37658;DHT22;23500;53.268;8.308;2023-05-07T04:58:39;16.60;67.20
37658;DHT22;23500;53.268;8.308;2023-05-07T05:01:05;16.60;67.10
37658;DHT22;23500;53.268;8.308;2023-05-07T05:03:31;16.50;67.10
37658;DHT22;23500;53.268;8.308;2023-05-07T05:05:57;16.60;67.40
37658;DHT22;23500;53.268;8.308;2023-05-07T05:08:24;16.60;67.10
37658;DHT22;23500;53.268;8.308;2023-05-07T05:10:50;16.50;66.80
37658;DHT22;23500;53.268;8.308;2023-05-07T05:13:16;16.50;66.70
37658;DHT22;23500;53.268;8.308;2023-05-07T05:15:42;16.50;66.50
37658;DHT22;23500;53.268;8.308;2023-05-07T05:18:07;16.50;66.20
37658;DHT22;23500;53.268;8.308;2023-05-07T05:20:33;16.60;66.60
37658;DHT22;23500;53.268;8.308;2023-05-07T05:22:58;16.60;66.10
37658;DHT22;23500;53.268;8.308;2023-05-07T05:25:24;16.70;65.90
37658;DHT22;23500;53.268;8.308;2023-05-07T05:27:50;16.80;65.60
37658;DHT22;23500;53.268;8.308;2023-05-07T05:30:15;16.80;65.30
37658;DHT22;23500;53.268;8.308;2023-05-07T05:32:41;16.90;65.10
37658;DHT22;23500;53.268;8.308;2023-05-07T05:35:07;16.90;64.80
37658;DHT22;23500;53.268;8.308;2023-05-07T05:37:33;17.00;64.90
37658;DHT22;23500;53.268;8.308;2023-05-07T05:39:59;17.00;64.70
37658;DHT22;23500;53.268;8.308;2023-05-07T05:42:24;17.00;64.50
37658;DHT22;23500;53.268;8.308;2023-05-07T05:44:50;17.00;64.30
37658;DHT22;23500;53.268;8.308;2023-05-07T05:47:16;17.10;64.30
37658;DHT22;23500;53.268;8.308;2023-05-07T05:49:41;17.10;64.20
37658;DHT22;23500;53.268;8.308;2023-05-07T05:52:08;17.00;64.30
37658;DHT22;23500;53.268;8.308;2023-05-07T05:54:34;17.00;64.30
37658;DHT22;23500;53.268;8.308;2023-05-07T05:57:00;17.00;64.10
37658;DHT22;23500;53.268;8.308;2023-05-07T05:59:25;17.00;64.00
37658;DHT22;23500;53.268;8.308;2023-05-07T06:01:51;17.00;64.20
37658;DHT22;23500;53.268;8.308;2023-05-07T06:04:17;17.00;64.30
37658;DHT22;23500;53.268;8.308;2023-05-07T06:06:42;17.00;64.50
37658;DHT22;23500;53.268;8.308;2023-05-07T06:09:08;17.00;64.60
37658;DHT22;23500;53.268;8.308;2023-05-07T06:11:33;17.00;64.20
37658;DHT22;23500;53.268;8.308;2023-05-07T06:13:59;16.90;64.40
37658;DHT22;23500;53.268;8.308;2023-05-07T06:16:25;16.90;64.40
37658;DHT22;23500;53.268;8.308;2023-05-07T06:18:50;16.90;64.40
37658;DHT22;23500;53.268;8.308;2023-05-07T06:21:16;16.80;64.70
37658;DHT22;23500;53.268;8.308;2023-05-07T06:23:42;16.80;64.80
37658;DHT22;23500;53.268;8.308;2023-05-07T06:26:07;16.80;65.40
37658;DHT22;23500;53.268;8.308;2023-05-07T06:28:33;16.80;65.60
37658;DHT22;23500;53.268;8.308;2023-05-07T06:31:18;16.80;65.20
37658;DHT22;23500;53.268;8.308;2023-05-07T06:33:48;16.80;65.60
37658;DHT22;23500;53.268;8.308;2023-05-07T06:36:13;16.80;65.30
37658;DHT22;23500;53.268;8.308;2023-05-07T06:38:39;16.80;65.30
37658;DHT22;23500;53.268;8.308;2023-05-07T06:41:07;16.80;65.40
37658;DHT22;23500;53.268;8.308;2023-05-07T06:43:33;16.80;65.50
37658;DHT22;23500;53.268;8.308;2023-05-07T06:45:59;16.80;65.50
37658;DHT22;23500;53.268;8.308;2023-05-07T06:48:25;16.80;65.50
37658;DHT22;23500;53.268;8.308;2023-05-07T06:50:50;16.80;65.30
37658;DHT22;23500;53.268;8.308;2023-05-07T06:53:16;16.80;65.30
37658;DHT22;23500;53.268;8.308;2023-05-07T06:55:42;16.80;65.20
37658;DHT22;23500;53.268;8.308;2023-05-07T06:58:07;16.80;64.80
37658;DHT22;23500;53.268;8.308;2023-05-07T07:00:33;16.80;64.70
37658;DHT22;23500;53.268;8.308;2023-05-07T07:02:59;16.80;64.90
37658;DHT22;23500;53.268;8.308;2023-05-07T07:05:25;16.80;64.80
37658;DHT22;23500;53.268;8.308;2023-05-07T07:07:51;16.80;64.90
37658;DHT22;23500;53.268;8.308;2023-05-07T07:10:20;16.80;65.00
37658;DHT22;23500;53.268;8.308;2023-05-07T07:12:46;16.80;64.50
37658;DHT22;23500;53.268;8.308;2023-05-07T07:15:13;16.80;64.80
37658;DHT22;23500;53.268;8.308;2023-05-07T07:17:38;16.80;64.40
37658;DHT22;23500;53.268;8.308;2023-05-07T07:20:05;16.90;65.80
37658;DHT22;23500;53.268;8.308;2023-05-07T07:22:30;16.90;66.00
37658;DHT22;23500;53.268;8.308;2023-05-07T07:24:56;16.90;65.80
37658;DHT22;23500;53.268;8.308;2023-05-07T07:27:22;17.00;65.70
37658;DHT22;23500;53.268;8.308;2023-05-07T07:29:47;17.00;65.80
37658;DHT22;23500;53.268;8.308;2023-05-07T07:32:13;17.00;65.70
37658;DHT22;23500;53.268;8.308;2023-05-07T07:34:39;17.10;65.60
37658;DHT22;23500;53.268;8.308;2023-05-07T07:37:05;17.10;65.60
37658;DHT22;23500;53.268;8.308;2023-05-07T07:39:35;17.10;65.70
37658;DHT22;23500;53.268;8.308;2023-05-07T07:42:03;17.10;65.50
37658;DHT22;23500;53.268;8.308;2023-05-07T07:44:28;17.10;65.60
37658;DHT22;23500;53.268;8.308;2023-05-07T07:46:54;17.10;65.50
37658;DHT22;23500;53.268;8.308;2023-05-07T07:49:20;17.10;65.50
37658;DHT22;23500;53.268;8.308;2023-05-07T07:51:45;17.10;65.10
37658;DHT22;23500;53.268;8.308;2023-05-07T07:54:11;17.20;65.20
37658;DHT22;23500;53.268;8.308;2023-05-07T07:56:38;17.20;65.10
37658;DHT22;23500;53.268;8.308;2023-05-07T07:59:04;17.20;64.80
37658;DHT22;23500;53.268;8.308;2023-05-07T08:01:30;17.20;65.30
37658;DHT22;23500;53.268;8.308;2023-05-07T08:03:56;17.30;64.70
37658;DHT22;23500;53.268;8.308;2023-05-07T08:06:24;17.30;64.80
37658;DHT22;23500;53.268;8.308;2023-05-07T08:08:51;17.30;64.80
37658;DHT22;23500;53.268;8.308;2023-05-07T08:11:16;17.40;65.00
37658;DHT22;23500;53.268;8.308;2023-05-07T08:13:42;17.40;65.20
37658;DHT22;23500;53.268;8.308;2023-05-07T08:16:08;17.40;64.70
37658;DHT22;23500;53.268;8.308;2023-05-07T08:18:34;17.40;64.80
37658;DHT22;23500;53.268;8.308;2023-05-07T08:21:00;17.50;64.80
37658;DHT22;23500;53.268;8.308;2023-05-07T08:23:26;17.40;64.50
37658;DHT22;23500;53.268;8.308;2023-05-07T08:25:52;17.50;64.60
37658;DHT22;23500;53.268;8.308;2023-05-07T08:28:18;17.50;64.70
37658;DHT22;23500;53.268;8.308;2023-05-07T08:30:45;17.50;64.40
37658;DHT22;23500;53.268;8.308;2023-05-07T08:33:10;17.50;64.80
37658;DHT22;23500;53.268;8.308;2023-05-07T08:35:36;17.50;64.50
37658;DHT22;23500;53.268;8.308;2023-05-07T08:38:02;17.50;64.70
37658;DHT22;23500;53.268;8.308;2023-05-07T08:40:28;17.50;64.70
37658;DHT22;23500;53.268;8.308;2023-05-07T08:42:55;17.50;64.60
37658;DHT22;23500;53.268;8.308;2023-05-07T08:45:22;17.50;64.60
37658;DHT22;23500;53.268;8.308;2023-05-07T08:47:52;17.50;64.80
37658;DHT22;23500;53.268;8.308;2023-05-07T08:50:20;17.50;64.80
37658;DHT22;23500;53.268;8.308;2023-05-07T08:52:46;17.50;64.80
37658;DHT22;23500;53.268;8.308;2023-05-07T08:55:12;17.50;64.80
37658;DHT22;23500;53.268;8.308;2023-05-07T08:57:38;17.50;64.90
37658;DHT22;23500;53.268;8.308;2023-05-07T09:00:05;17.50;64.80
37658;DHT22;23500;53.268;8.308;2023-05-07T09:02:32;17.50;64.80
37658;DHT22;23500;53.268;8.308;2023-05-07T09:04:58;17.50;64.90
37658;DHT22;23500;53.268;8.308;2023-05-07T09:07:25;17.60;64.90
37658;DHT22;23500;53.268;8.308;2023-05-07T09:09:51;17.60;64.90
37658;DHT22;23500;53.268;8.308;2023-05-07T09:12:18;17.60;64.90
37658;DHT22;23500;53.268;8.308;2023-05-07T09:14:47;17.60;64.80
37658;DHT22;23500;53.268;8.308;2023-05-07T09:17:13;17.60;65.00
37658;DHT22;23500;53.268;8.308;2023-05-07T09:19:40;17.60;64.70
37658;DHT22;23500;53.268;8.308;2023-05-07T09:22:06;17.60;64.70
37658;DHT22;23500;53.268;8.308;2023-05-07T09:24:35;17.60;64.40
37658;DHT22;23500;53.268;8.308;2023-05-07T09:27:03;17.60;64.50
37658;DHT22;23500;53.268;8.308;2023-05-07T09:29:29;17.60;64.40
37658;DHT22;23500;53.268;8.308;2023-05-07T09:31:58;17.60;64.60
37658;DHT22;23500;53.268;8.308;2023-05-07T09:34:23;17.60;64.60
37658;DHT22;23500;53.268;8.308;2023-05-07T09:36:49;17.70;64.60
37658;DHT22;23500;53.268;8.308;2023-05-07T09:39:15;17.70;64.30
37658;DHT22;23500;53.268;8.308;2023-05-07T09:41:48;17.70;64.30
37658;DHT22;23500;53.268;8.308;2023-05-07T09:44:15;17.70;64.30
37658;DHT22;23500;53.268;8.308;2023-05-07T09:46:43;17.70;63.90
37658;DHT22;23500;53.268;8.308;2023-05-07T09:49:16;17.80;64.00
37658;DHT22;23500;53.268;8.308;2023-05-07T09:51:49;17.80;64.00
37658;DHT22;23500;53.268;8.308;2023-05-07T09:54:15;17.90;63.90
37658;DHT22;23500;53.268;8.308;2023-05-07T09:56:45;17.90;63.70
37658;DHT22;23500;53.268;8.308;2023-05-07T09:59:14;17.90;63.50
37658;DHT22;23500;53.268;8.308;2023-05-07T10:01:42;17.90;63.30
37658;DHT22;23500;53.268;8.308;2023-05-07T10:04:08;18.00;63.40
37658;DHT22;23500;53.268;8.308;2023-05-07T10:06:35;18.10;63.20
37658;DHT22;23500;53.268;8.308;2023-05-07T10:09:02;18.10;63.20
37658;DHT22;23500;53.268;8.308;2023-05-07T10:11:28;18.20;63.10
37658;DHT22;23500;53.268;8.308;2023-05-07T10:13:54;18.20;63.10
37658;DHT22;23500;53.268;8.308;2023-05-07T10:16:21;18.30;62.70
37658;DHT22;23500;53.268;8.308;2023-05-07T10:18:47;18.30;63.00
37658;DHT22;23500;53.268;8.308;2023-05-07T10:21:17;18.30;62.30
37658;DHT22;23500;53.268;8.308;2023-05-07T10:23:51;18.30;62.60
37658;DHT22;23500;53.268;8.308;2023-05-07T10:26:18;18.30;62.50
37658;DHT22;23500;53.268;8.308;2023-05-07T10:28:51;18.30;62.40
37658;DHT22;23500;53.268;8.308;2023-05-07T10:34:00;18.40;62.80
37658;DHT22;23500;53.268;8.308;2023-05-07T10:36:26;18.30;62.40
37658;DHT22;23500;53.268;8.308;2023-05-07T10:38:53;18.40;62.50
37658;DHT22;23500;53.268;8.308;2023-05-07T10:41:19;18.40;62.50
37658;DHT22;23500;53.268;8.308;2023-05-07T10:43:46;18.40;62.20
37658;DHT22;23500;53.268;8.308;2023-05-07T10:46:17;18.40;62.20
37658;DHT22;23500;53.268;8.308;2023-05-07T10:49:06;18.40;62.30
37658;DHT22;23500;53.268;8.308;2023-05-07T10:51:32;18.40;62.50
37658;DHT22;23500;53.268;8.308;2023-05-07T10:56:41;18.50;61.80
37658;DHT22;23500;53.268;8.308;2023-05-07T10:59:37;18.50;62.30
37658;DHT22;23500;53.268;8.308;2023-05-07T11:02:07;18.40;62.50
37658;DHT22;23500;53.268;8.308;2023-05-07T11:04:35;18.50;62.40
37658;DHT22;23500;53.268;8.308;2023-05-07T11:15:11;18.60;62.90
37658;DHT22;23500;53.268;8.308;2023-05-07T11:20:19;18.60;64.10
37658;DHT22;23500;53.268;8.308;2023-05-07T11:22:46;18.60;63.40
37658;DHT22;23500;53.268;8.308;2023-05-07T11:25:17;18.70;63.50
37658;DHT22;23500;53.268;8.308;2023-05-07T11:27:47;18.70;63.40
37658;DHT22;23500;53.268;8.308;2023-05-07T11:30:19;18.60;63.40
37658;DHT22;23500;53.268;8.308;2023-05-07T11:32:47;18.70;62.60
37658;DHT22;23500;53.268;8.308;2023-05-07T11:35:15;18.70;63.90
37658;DHT22;23500;53.268;8.308;2023-05-07T11:37:41;18.70;63.70
37658;DHT22;23500;53.268;8.308;2023-05-07T11:40:08;18.70;63.50
37658;DHT22;23500;53.268;8.308;2023-05-07T11:42:37;18.70;64.10
37658;DHT22;23500;53.268;8.308;2023-05-07T11:45:03;18.70;64.70
37658;DHT22;23500;53.268;8.308;2023-05-07T11:47:33;18.70;64.90
37658;DHT22;23500;53.268;8.308;2023-05-07T11:50:04;18.70;64.80
37658;DHT22;23500;53.268;8.308;2023-05-07T11:52:30;18.70;64.50
37658;DHT22;23500;53.268;8.308;2023-05-07T11:54:57;18.70;64.40
37658;DHT22;23500;53.268;8.308;2023-05-07T11:57:24;18.70;65.00
37658;DHT22;23500;53.268;8.308;2023-05-07T11:59:53;18.70;64.80
37658;DHT22;23500;53.268;8.308;2023-05-07T12:02:19;18.60;65.00
37658;DHT22;23500;53.268;8.308;2023-05-07T12:04:45;18.60;64.90
37658;DHT22;23500;53.268;8.308;2023-05-07T12:07:14;18.60;65.00
37658;DHT22;23500;53.268;8.308;2023-05-07T12:09:41;18.60;65.20
37658;DHT22;23500;53.268;8.308;2023-05-07T12:12:07;18.60;65.40
37658;DHT22;23500;53.268;8.308;2023-05-07T12:14:33;18.60;65.40
37658;DHT22;23500;53.268;8.308;2023-05-07T12:17:03;18.60;65.40
37658;DHT22;23500;53.268;8.308;2023-05-07T12:19:30;18.60;65.40
37658;DHT22;23500;53.268;8.308;2023-05-07T12:21:56;18.60;65.10
37658;DHT22;23500;53.268;8.308;2023-05-07T12:24:22;18.60;65.40
37658;DHT22;23500;53.268;8.308;2023-05-07T12:26:48;18.70;65.20
37658;DHT22;23500;53.268;8.308;2023-05-07T12:29:13;18.60;65.40
37658;DHT22;23500;53.268;8.308;2023-05-07T12:31:44;18.60;65.50
37658;DHT22;23500;53.268;8.308;2023-05-07T12:34:12;18.60;65.50
37658;DHT22;23500;53.268;8.308;2023-05-07T12:36:39;18.60;65.50
37658;DHT22;23500;53.268;8.308;2023-05-07T12:39:09;18.60;65.50
37658;DHT22;23500;53.268;8.308;2023-05-07T12:41:58;18.60;65.50
37658;DHT22;23500;53.268;8.308;2023-05-07T12:44:33;18.60;65.60
37658;DHT22;23500;53.268;8.308;2023-05-07T12:47:01;18.60;65.60
37658;DHT22;23500;53.268;8.308;2023-05-07T12:49:27;18.60;65.50
37658;DHT22;23500;53.268;8.308;2023-05-07T12:51:53;18.60;65.50
37658;DHT22;23500;53.268;8.308;2023-05-07T12:54:37;18.60;65.60
37658;DHT22;23500;53.268;8.308;2023-05-07T12:57:08;18.60;65.60
37658;DHT22;23500;53.268;8.308;2023-05-07T12:59:38;18.60;65.60
37658;DHT22;23500;53.268;8.308;2023-05-07T13:02:05;18.60;65.60
37658;DHT22;23500;53.268;8.308;2023-05-07T13:04:31;18.60;65.70
37658;DHT22;23500;53.268;8.308;2023-05-07T13:06:58;18.50;65.70
37658;DHT22;23500;53.268;8.308;2023-05-07T13:09:23;18.50;65.80
37658;DHT22;23500;53.268;8.308;2023-05-07T13:11:49;18.50;65.80
37658;DHT22;23500;53.268;8.308;2023-05-07T13:14:15;18.50;65.80
37658;DHT22;23500;53.268;8.308;2023-05-07T13:16:40;18.50;65.90
37658;DHT22;23500;53.268;8.308;2023-05-07T13:19:06;18.50;65.90
37658;DHT22;23500;53.268;8.308;2023-05-07T13:21:32;18.50;66.60
37658;DHT22;23500;53.268;8.308;2023-05-07T13:23:58;18.40;66.00
37658;DHT22;23500;53.268;8.308;2023-05-07T13:26:24;18.40;66.00
37658;DHT22;23500;53.268;8.308;2023-05-07T13:28:50;18.40;66.00
37658;DHT22;23500;53.268;8.308;2023-05-07T13:31:17;18.50;65.70
37658;DHT22;23500;53.268;8.308;2023-05-07T13:33:43;18.50;65.90
37658;DHT22;23500;53.268;8.308;2023-05-07T13:36:08;18.50;65.80
37658;DHT22;23500;53.268;8.308;2023-05-07T13:38:34;18.50;66.10
37658;DHT22;23500;53.268;8.308;2023-05-07T13:41:00;18.50;66.20
37658;DHT22;23500;53.268;8.308;2023-05-07T13:43:26;18.50;66.20
37658;DHT22;23500;53.268;8.308;2023-05-07T13:45:51;18.50;66.20
37658;DHT22;23500;53.268;8.308;2023-05-07T13:48:17;18.50;66.20
37658;DHT22;23500;53.268;8.308;2023-05-07T13:50:43;18.60;66.90
37658;DHT22;23500;53.268;8.308;2023-05-07T13:53:08;18.60;66.20
37658;DHT22;23500;53.268;8.308;2023-05-07T13:55:34;18.60;66.20
37658;DHT22;23500;53.268;8.308;2023-05-07T13:58:01;18.60;66.00
37658;DHT22;23500;53.268;8.308;2023-05-07T14:00:29;18.60;66.00
37658;DHT22;23500;53.268;8.308;2023-05-07T14:02:55;18.60;66.10
37658;DHT22;23500;53.268;8.308;2023-05-07T14:05:21;18.70;66.00
37658;DHT22;23500;53.268;8.308;2023-05-07T14:07:50;18.70;66.10
37658;DHT22;23500;53.268;8.308;2023-05-07T14:10:17;18.70;66.00
37658;DHT22;23500;53.268;8.308;2023-05-07T14:12:44;18.70;66.10
37658;DHT22;23500;53.268;8.308;2023-05-07T14:15:10;18.70;66.00
37658;DHT22;23500;53.268;8.308;2023-05-07T14:17:36;18.70;66.00
37658;DHT22;23500;53.268;8.308;2023-05-07T14:20:01;18.60;66.00
37658;DHT22;23500;53.268;8.308;2023-05-07T14:22:27;18.60;66.10
37658;DHT22;23500;53.268;8.308;2023-05-07T14:24:54;18.60;66.20
37658;DHT22;23500;53.268;8.308;2023-05-07T14:27:19;18.60;66.30
37658;DHT22;23500;53.268;8.308;2023-05-07T14:29:45;18.60;66.30
37658;DHT22;23500;53.268;8.308;2023-05-07T14:32:19;18.60;66.30
37658;DHT22;23500;53.268;8.308;2023-05-07T14:34:45;18.60;66.30
37658;DHT22;23500;53.268;8.308;2023-05-07T14:37:11;18.60;66.30
37658;DHT22;23500;53.268;8.308;2023-05-07T14:39:36;18.60;66.50
37658;DHT22;23500;53.268;8.308;2023-05-07T14:42:02;18.60;66.40
37658;DHT22;23500;53.268;8.308;2023-05-07T14:44:28;18.60;66.50
37658;DHT22;23500;53.268;8.308;2023-05-07T14:46:54;18.60;66.50
37658;DHT22;23500;53.268;8.308;2023-05-07T14:49:20;18.60;66.50
37658;DHT22;23500;53.268;8.308;2023-05-07T14:51:46;18.60;66.50
37658;DHT22;23500;53.268;8.308;2023-05-07T14:54:13;18.60;66.50
37658;DHT22;23500;53.268;8.308;2023-05-07T14:56:39;18.60;66.70
37658;DHT22;23500;53.268;8.308;2023-05-07T14:59:05;18.50;66.80
37658;DHT22;23500;53.268;8.308;2023-05-07T15:01:31;18.50;66.90
37658;DHT22;23500;53.268;8.308;2023-05-07T15:03:57;18.50;66.90
37658;DHT22;23500;53.268;8.308;2023-05-07T15:06:23;18.50;67.00
37658;DHT22;23500;53.268;8.308;2023-05-07T15:08:49;18.40;67.00
37658;DHT22;23500;53.268;8.308;2023-05-07T15:11:14;18.50;67.10
37658;DHT22;23500;53.268;8.308;2023-05-07T15:13:42;18.50;67.10
37658;DHT22;23500;53.268;8.308;2023-05-07T15:16:07;18.50;67.20
37658;DHT22;23500;53.268;8.308;2023-05-07T15:18:33;18.50;67.20
37658;DHT22;23500;53.268;8.308;2023-05-07T15:20:59;18.50;67.20
37658;DHT22;23500;53.268;8.308;2023-05-07T15:23:25;18.40;67.20
37658;DHT22;23500;53.268;8.308;2023-05-07T15:25:52;18.40;67.20
37658;DHT22;23500;53.268;8.308;2023-05-07T15:28:17;18.40;67.10
37658;DHT22;23500;53.268;8.308;2023-05-07T15:30:43;18.40;67.20
37658;DHT22;23500;53.268;8.308;2023-05-07T15:33:09;18.40;67.30
37658;DHT22;23500;53.268;8.308;2023-05-07T15:35:35;18.40;67.40
37658;DHT22;23500;53.268;8.308;2023-05-07T15:38:00;18.40;67.40
37658;DHT22;23500;53.268;8.308;2023-05-07T15:40:29;18.40;67.40
37658;DHT22;23500;53.268;8.308;2023-05-07T15:42:55;18.40;67.40